createdAt,value
2018-07-09T00:00:42.622Z,16.52
2018-07-09T00:03:15.906Z,16.45
2018-07-09T00:05:51.368Z,16.40
2018-07-09T00:08:26.771Z,16.36
2018-07-09T00:11:07.617Z,16.24
2018-07-09T00:13:43.651Z,16.22
2018-07-09T00:16:16.778Z,16.20
2018-07-09T00:18:50.769Z,16.05
2018-07-09T00:21:24.378Z,15.95
2018-07-09T00:23:56.936Z,15.85
2018-07-09T00:26:31.370Z,15.74
2018-07-09T00:29:05.782Z,15.63
2018-07-09T00:31:41.804Z,15.51
2018-07-09T00:34:17.449Z,15.42
2018-07-09T00:36:50.305Z,15.33
2018-07-09T00:39:25.188Z,15.29
2018-07-09T00:42:00.437Z,15.32
2018-07-09T00:44:34.389Z,15.30
2018-07-09T00:47:08.827Z,15.22
2018-07-09T00:49:44.730Z,15.25
2018-07-09T00:52:19.160Z,15.21
2018-07-09T00:54:53.557Z,15.10
2018-07-09T00:57:27.134Z,15.09
2018-07-09T01:00:01.079Z,15.08
2018-07-09T01:02:36.729Z,15.04
2018-07-09T01:05:09.983Z,15.08
2018-07-09T01:07:46.946Z,15.16
2018-07-09T01:10:19.607Z,15.22
2018-07-09T01:12:57.604Z,15.27
2018-07-09T01:15:30.089Z,15.27
2018-07-09T01:18:04.249Z,15.18
2018-07-09T01:20:40.046Z,15.15
2018-07-09T01:23:14.060Z,15.09
2018-07-09T01:25:46.462Z,15.11
2018-07-09T01:28:19.343Z,15.06
2018-07-09T01:30:53.162Z,15.03
2018-07-09T01:33:26.654Z,15.10
2018-07-09T01:36:01.550Z,15.19
2018-07-09T01:38:34.983Z,15.23
2018-07-09T01:41:07.527Z,15.25
2018-07-09T01:43:40.332Z,15.17
2018-07-09T01:46:14.446Z,15.04
2018-07-09T01:48:47.001Z,15.01
2018-07-09T01:51:22.041Z,14.98
2018-07-09T01:53:55.422Z,14.91
2018-07-09T01:56:28.053Z,14.90
2018-07-09T01:59:01.293Z,14.78
2018-07-09T02:01:34.038Z,14.75
2018-07-09T02:04:07.069Z,14.68
2018-07-09T02:06:40.058Z,14.74
2018-07-09T02:09:20.787Z,14.69
2018-07-09T02:11:55.579Z,14.63
2018-07-09T02:14:34.290Z,14.56
2018-07-09T02:17:06.923Z,14.58
2018-07-09T02:19:40.825Z,14.46
2018-07-09T02:22:15.690Z,14.43
2018-07-09T02:24:49.137Z,14.33
2018-07-09T02:27:23.003Z,14.27
2018-07-09T02:29:55.921Z,14.19
2018-07-09T02:32:29.487Z,14.21
2018-07-09T02:35:01.957Z,14.13
2018-07-09T02:37:36.698Z,14.14
2018-07-09T02:40:10.031Z,14.08
2018-07-09T02:42:43.632Z,14.03
2018-07-09T02:45:17.332Z,13.95
2018-07-09T02:47:51.562Z,13.85
2018-07-09T02:50:25.923Z,13.74
2018-07-09T02:52:59.522Z,13.68
2018-07-09T02:55:32.134Z,13.60
2018-07-09T02:58:08.389Z,13.48
2018-07-09T03:00:42.481Z,13.37
2018-07-09T03:03:15.026Z,13.25
2018-07-09T03:05:47.553Z,13.22
2018-07-09T03:08:21.345Z,13.06
2018-07-09T03:10:53.910Z,12.92
2018-07-09T03:13:27.410Z,12.83
2018-07-09T03:16:01.373Z,12.75
2018-07-09T03:18:34.063Z,12.72
2018-07-09T03:21:08.312Z,12.66
2018-07-09T03:23:42.011Z,12.65
2018-07-09T03:26:14.556Z,12.64
2018-07-09T03:28:47.098Z,12.66
2018-07-09T03:31:21.509Z,12.67
2018-07-09T03:33:54.175Z,12.64
2018-07-09T03:36:26.788Z,12.63
2018-07-09T03:38:59.774Z,12.58
2018-07-09T03:41:32.110Z,12.54
2018-07-09T03:44:04.914Z,12.54
2018-07-09T03:46:38.853Z,12.45
2018-07-09T03:49:12.194Z,12.41
2018-07-09T03:51:45.083Z,12.40
2018-07-09T03:54:19.425Z,12.45
2018-07-09T03:56:55.358Z,12.55
2018-07-09T03:59:27.902Z,12.47
2018-07-09T04:02:02.958Z,12.37
2018-07-09T04:04:35.401Z,12.31
2018-07-09T04:07:08.084Z,12.23
2018-07-09T04:09:42.125Z,12.20
2018-07-09T04:12:14.834Z,12.21
2018-07-09T04:14:48.312Z,12.29
2018-07-09T04:17:22.212Z,12.36
2018-07-09T04:19:55.971Z,12.50
2018-07-09T04:22:28.327Z,12.53
2018-07-09T04:25:01.418Z,12.56
2018-07-09T04:27:33.953Z,12.60
2018-07-09T04:30:06.749Z,12.63
2018-07-09T04:32:40.859Z,12.63
2018-07-09T04:35:13.573Z,12.69
2018-07-09T04:37:46.111Z,12.75
2018-07-09T04:40:19.205Z,12.83
2018-07-09T04:42:51.737Z,12.93
2018-07-09T04:45:24.185Z,13.04
2018-07-09T04:47:57.006Z,13.16
2018-07-09T04:50:29.408Z,13.32
2018-07-09T04:53:04.350Z,13.55
2018-07-09T04:55:37.341Z,13.69
2018-07-09T04:58:09.773Z,13.88
2018-07-09T05:00:43.821Z,14.06
2018-07-09T05:03:16.440Z,14.18
2018-07-09T05:05:50.657Z,14.25
2018-07-09T05:08:23.186Z,14.41
2018-07-09T05:10:56.070Z,14.47
2018-07-09T05:13:28.496Z,14.52
2018-07-09T05:16:02.305Z,14.59
2018-07-09T05:18:35.213Z,14.65
2018-07-09T05:21:08.049Z,14.71
2018-07-09T05:23:41.408Z,14.77
2018-07-09T05:26:14.211Z,14.84
2018-07-09T05:28:47.724Z,14.89
2018-07-09T05:31:20.412Z,14.92
2018-07-09T05:33:53.107Z,14.97
2018-07-09T05:36:25.581Z,15.09
2018-07-09T05:38:59.712Z,15.22
2018-07-09T05:41:32.745Z,15.28
2018-07-09T05:44:05.226Z,15.30
2018-07-09T05:46:38.396Z,15.33
2018-07-09T05:49:12.150Z,15.36
2018-07-09T05:51:45.214Z,15.45
2018-07-09T05:54:18.056Z,15.43
2018-07-09T05:56:51.798Z,15.43
2018-07-09T05:59:25.896Z,15.54
2018-07-09T06:01:59.077Z,15.61
2018-07-09T06:04:31.643Z,15.73
2018-07-09T06:07:06.612Z,15.83
2018-07-09T06:09:40.484Z,15.88
2018-07-09T06:12:13.297Z,15.95
2018-07-09T06:14:46.765Z,16.07
2018-07-09T06:17:19.502Z,16.19
2018-07-09T06:19:54.956Z,16.37
2018-07-09T06:22:34.369Z,16.43
2018-07-09T06:25:07.140Z,16.43
2018-07-09T06:27:39.596Z,16.50
2018-07-09T06:30:14.247Z,16.54
2018-07-09T06:32:47.916Z,16.54
2018-07-09T06:35:22.115Z,16.55
2018-07-09T06:37:54.657Z,16.60
2018-07-09T06:40:30.122Z,16.70
2018-07-09T06:43:02.735Z,16.85
2018-07-09T06:45:35.299Z,16.85
2018-07-09T06:48:08.201Z,17.02
2018-07-09T06:50:42.050Z,17.03
2018-07-09T06:53:14.631Z,17.14
2018-07-09T06:55:47.686Z,17.18
2018-07-09T06:58:22.166Z,17.21
2018-07-09T07:00:54.686Z,17.24
2018-07-09T07:03:31.734Z,17.27
2018-07-09T07:06:07.178Z,17.39
2018-07-09T07:08:40.713Z,17.43
2018-07-09T07:11:14.333Z,17.49
2018-07-09T07:13:48.141Z,17.60
2018-07-09T07:16:21.041Z,17.68
2018-07-09T07:18:54.789Z,17.72
2018-07-09T07:21:28.813Z,17.80
2018-07-09T07:24:04.502Z,17.99
2018-07-09T07:26:38.129Z,18.13
2018-07-09T07:29:10.690Z,18.20
2018-07-09T07:31:43.164Z,18.29
2018-07-09T07:34:18.953Z,18.35
2018-07-09T07:36:53.132Z,18.50
2018-07-09T07:39:25.713Z,18.74
2018-07-09T07:42:00.918Z,18.96
2018-07-09T07:44:33.468Z,19.03
2018-07-09T07:47:06.729Z,19.16
2018-07-09T07:49:39.949Z,19.28
2018-07-09T07:52:12.561Z,19.48
2018-07-09T07:54:46.477Z,20.01
2018-07-09T07:57:21.741Z,20.71
2018-07-09T07:59:58.909Z,21.46
2018-07-09T08:02:31.910Z,22.08
2018-07-09T08:05:05.157Z,22.36
2018-07-09T08:07:38.112Z,22.58
2018-07-09T08:10:13.793Z,22.32
2018-07-09T08:13:27.165Z,22.12
2018-07-09T08:15:37.297Z,22.89
2018-07-09T08:18:10.584Z,22.99
2018-07-09T08:20:45.631Z,23.09
2018-07-09T08:23:19.839Z,22.60
2018-07-09T08:25:56.806Z,22.63
2018-07-09T08:28:29.488Z,22.87
2018-07-09T08:31:01.834Z,22.78
2018-07-09T08:33:36.499Z,22.78
2018-07-09T08:36:10.048Z,22.66
2018-07-09T08:38:42.793Z,22.41
2018-07-09T08:41:17.325Z,22.97
2018-07-09T08:43:50.637Z,23.66
2018-07-09T08:46:23.791Z,24.03
2018-07-09T08:48:57.648Z,24.01
2018-07-09T08:51:30.350Z,23.86
2018-07-09T08:54:10.181Z,23.97
2018-07-09T08:56:44.313Z,24.35
2018-07-09T08:59:17.613Z,24.75
2018-07-09T09:01:51.112Z,24.82
2018-07-09T09:04:24.589Z,24.91
2018-07-09T09:06:57.139Z,24.98
2018-07-09T09:09:31.341Z,24.97
2018-07-09T09:12:08.552Z,24.75
2018-07-09T09:14:43.185Z,25.02
2018-07-09T09:17:16.778Z,25.51
2018-07-09T09:19:50.555Z,25.78
2018-07-09T09:22:25.370Z,25.58
2018-07-09T09:24:58.126Z,25.95
2018-07-09T09:27:33.382Z,26.54
2018-07-09T09:30:09.511Z,26.56
2018-07-09T09:32:43.345Z,27.17
2018-07-09T09:35:16.273Z,26.53
2018-07-09T09:37:52.338Z,25.96
2018-07-09T09:40:27.141Z,25.56
2018-07-09T09:43:07.880Z,24.86
2018-07-09T09:45:40.913Z,24.61
2018-07-09T09:48:14.329Z,24.43
2018-07-09T09:50:48.632Z,24.46
2018-07-09T09:53:21.661Z,25.20
2018-07-09T09:55:57.917Z,25.65
2018-07-09T09:58:33.908Z,25.60
2018-07-09T10:01:13.844Z,26.00
2018-07-09T10:03:47.794Z,25.85
2018-07-09T10:06:21.722Z,25.56
2018-07-09T10:08:56.268Z,25.51
2018-07-09T10:11:35.677Z,25.79
2018-07-09T10:14:09.215Z,26.36
2018-07-09T10:16:42.726Z,27.04
2018-07-09T10:19:15.445Z,27.27
2018-07-09T10:21:49.164Z,26.95
2018-07-09T10:24:23.373Z,26.77
2018-07-09T10:26:59.824Z,27.34
2018-07-09T10:29:33.599Z,27.09
2018-07-09T10:32:08.557Z,26.81
2018-07-09T10:34:42.039Z,26.39
2018-07-09T10:37:16.745Z,26.10
2018-07-09T10:39:53.025Z,26.19
2018-07-09T10:42:26.476Z,26.40
2018-07-09T10:45:06.704Z,26.30
2018-07-09T10:47:44.709Z,26.82
2018-07-09T10:50:20.754Z,26.93
2018-07-09T10:52:53.939Z,27.25
2018-07-09T10:55:34.549Z,26.77
2018-07-09T10:58:13.214Z,26.70
2018-07-09T11:00:47.184Z,26.90
2018-07-09T11:03:21.382Z,27.19
2018-07-09T11:05:56.433Z,27.16
2018-07-09T11:08:31.125Z,27.54
2018-07-09T11:11:04.268Z,27.09
2018-07-09T11:13:40.070Z,26.66
2018-07-09T11:16:15.049Z,26.19
2018-07-09T11:18:49.810Z,26.34
2018-07-09T11:21:23.611Z,26.02
2018-07-09T11:23:59.255Z,25.73
2018-07-09T11:26:32.641Z,25.52
2018-07-09T11:29:07.699Z,25.50
2018-07-09T11:31:42.058Z,25.24
2018-07-09T11:34:15.777Z,25.18
2018-07-09T11:36:50.313Z,25.66
2018-07-09T11:39:26.736Z,25.80
2018-07-09T11:42:01.847Z,26.25
2018-07-09T11:44:36.219Z,26.52
2018-07-09T11:47:09.650Z,26.44
2018-07-09T11:49:42.980Z,26.35
2018-07-09T11:52:19.006Z,26.28
2018-07-09T11:54:52.165Z,26.26
2018-07-09T11:57:24.868Z,26.05
2018-07-09T11:59:59.952Z,25.41
2018-07-09T12:02:34.318Z,25.31
2018-07-09T12:05:09.150Z,25.31
2018-07-09T12:07:43.130Z,25.39
2018-07-09T12:10:16.329Z,25.47
2018-07-09T12:12:52.328Z,25.39
2018-07-09T12:15:29.963Z,25.45
2018-07-09T12:18:04.986Z,25.81
2018-07-09T12:20:39.532Z,26.17
2018-07-09T12:23:11.950Z,26.35
2018-07-09T12:25:46.261Z,26.80
2018-07-09T12:28:19.158Z,27.26
2018-07-09T12:30:55.480Z,27.23
2018-07-09T12:33:28.225Z,27.32
2018-07-09T12:36:04.316Z,27.57
2018-07-09T12:38:38.292Z,27.66
2018-07-09T12:41:10.894Z,27.74
2018-07-09T12:43:45.991Z,28.01
2018-07-09T12:46:20.439Z,28.31
2018-07-09T12:48:53.035Z,28.36
2018-07-09T12:51:26.989Z,27.99
2018-07-09T12:53:59.933Z,27.82
2018-07-09T12:56:37.278Z,27.87
2018-07-09T12:59:12.033Z,27.57
2018-07-09T13:01:46.726Z,27.20
2018-07-09T13:04:20.656Z,26.80
2018-07-09T13:06:55.270Z,26.62
2018-07-09T13:09:28.430Z,26.26
2018-07-09T13:12:02.707Z,26.22
2018-07-09T13:14:41.767Z,26.18
2018-07-09T13:17:18.591Z,26.17
2018-07-09T13:19:54.753Z,26.14
2018-07-09T13:22:30.905Z,26.12
2018-07-09T13:25:03.545Z,26.12
2018-07-09T13:27:38.574Z,26.10
2018-07-09T13:30:14.627Z,26.07
2018-07-09T13:32:48.357Z,26.13
2018-07-09T13:35:22.620Z,26.19
2018-07-09T13:37:55.803Z,26.20
2018-07-09T13:40:33.298Z,26.13
2018-07-09T13:43:08.108Z,26.12
2018-07-09T13:45:41.323Z,25.83
2018-07-09T13:48:16.048Z,25.81
2018-07-09T13:50:55.922Z,25.96
2018-07-09T13:53:39.716Z,26.30
2018-07-09T13:56:17.193Z,26.73
2018-07-09T13:58:53.068Z,27.04
2018-07-09T14:01:27.844Z,27.56
2018-07-09T14:07:04.970Z,27.78
2018-07-09T14:09:37.441Z,27.93
2018-07-09T14:12:11.971Z,27.64
2018-07-09T14:14:47.044Z,27.55
2018-07-09T14:17:20.043Z,27.58
2018-07-09T14:20:30.409Z,26.92
2018-07-09T14:23:06.425Z,26.82
2018-07-09T14:25:39.629Z,26.98
2018-07-09T14:28:12.678Z,27.09
2018-07-09T14:30:46.789Z,26.96
2018-07-09T14:33:19.503Z,26.81
2018-07-09T14:35:52.544Z,26.49
2018-07-09T14:38:37.692Z,26.33
2018-07-09T14:41:12.391Z,26.29
2018-07-09T14:43:45.277Z,26.04
2018-07-09T14:46:20.882Z,25.96
2018-07-09T14:48:55.649Z,25.76
2018-07-09T14:51:32.501Z,25.49
2018-07-09T14:54:07.262Z,25.20
2018-07-09T14:56:41.470Z,25.09
2018-07-09T14:59:17.859Z,25.11
2018-07-09T15:01:51.381Z,25.22
2018-07-09T15:04:33.842Z,25.24
2018-07-09T15:07:10.831Z,25.11
2018-07-09T15:09:44.950Z,24.98
2018-07-09T15:12:19.348Z,24.77
2018-07-09T15:14:53.998Z,24.62
2018-07-09T15:17:27.406Z,24.49
2018-07-09T15:20:01.786Z,24.31
2018-07-09T15:22:34.365Z,23.96
2018-07-09T15:25:08.066Z,23.83
2018-07-09T15:27:41.781Z,23.70
2018-07-09T15:30:17.781Z,23.56
2018-07-09T15:32:51.130Z,23.56
2018-07-09T15:35:31.698Z,23.59
2018-07-09T15:38:14.701Z,23.76
2018-07-09T15:40:55.746Z,23.87
2018-07-09T15:43:52.331Z,24.11
2018-07-09T15:46:37.293Z,24.40
2018-07-09T15:49:21.521Z,24.57
2018-07-09T15:52:19.339Z,24.68
2018-07-09T15:55:01.370Z,24.73
2018-07-09T15:57:46.008Z,24.68
2018-07-09T16:00:25.443Z,24.56
2018-07-09T16:03:14.703Z,24.52
2018-07-09T16:05:57.720Z,24.44
2018-07-09T16:08:40.662Z,24.37
2018-07-09T16:11:25.517Z,24.37
2018-07-09T16:14:11.505Z,24.34
2018-07-09T16:16:53.528Z,24.35
2018-07-09T16:19:36.537Z,24.29
2018-07-09T16:22:20.188Z,24.23
2018-07-09T16:25:02.725Z,24.15
2018-07-09T16:27:42.534Z,24.14
2018-07-09T16:30:25.562Z,23.99
2018-07-09T16:33:12.765Z,23.92
2018-07-09T16:35:48.311Z,23.82
2018-07-09T16:38:23.817Z,23.73
2018-07-09T16:40:58.049Z,23.64
2018-07-09T16:43:34.523Z,23.67
2018-07-09T16:46:08.587Z,23.80
2018-07-09T16:48:42.650Z,23.93
2018-07-09T16:51:16.719Z,24.14
2018-07-09T16:53:52.769Z,24.15
2018-07-09T16:56:26.663Z,24.23
2018-07-09T16:59:01.249Z,24.28
2018-07-09T17:01:33.927Z,24.28
2018-07-09T17:04:09.794Z,24.29
2018-07-09T17:06:44.981Z,24.14
2018-07-09T17:09:21.713Z,23.98
2018-07-09T17:11:59.653Z,23.90
2018-07-09T17:14:34.711Z,23.81
2018-07-09T17:17:19.266Z,23.67
2018-07-09T17:19:54.689Z,23.52
2018-07-09T17:22:30.702Z,23.42
2018-07-09T17:25:05.709Z,23.41
2018-07-09T17:27:40.503Z,23.33
2018-07-09T17:30:19.091Z,23.30
2018-07-09T17:32:54.777Z,23.35
2018-07-09T17:35:31.068Z,23.43
2018-07-09T17:38:08.421Z,23.31
2018-07-09T17:40:44.520Z,23.34
2018-07-09T17:43:18.370Z,23.29
2018-07-09T17:45:55.725Z,23.15
2018-07-09T17:48:30.368Z,23.12
2018-07-09T17:51:04.168Z,23.04
2018-07-09T17:53:38.832Z,22.98
2018-07-09T17:56:15.427Z,22.94
2018-07-09T17:58:49.352Z,22.87
2018-07-09T18:01:24.621Z,22.84
2018-07-09T18:03:59.434Z,22.74
2018-07-09T18:06:32.999Z,22.61
2018-07-09T18:09:10.447Z,22.52
2018-07-09T18:11:47.020Z,22.44
2018-07-09T18:14:23.229Z,22.34
2018-07-09T18:16:59.673Z,22.18
2018-07-09T18:19:52.325Z,22.08
2018-07-09T18:22:35.730Z,22.02
2018-07-09T18:25:18.940Z,21.91
2018-07-09T18:27:59.283Z,21.91
2018-07-09T18:30:40.025Z,21.85
2018-07-09T18:33:20.166Z,21.78
2018-07-09T18:35:55.408Z,21.71
2018-07-09T18:38:30.843Z,21.65
2018-07-09T18:41:22.517Z,21.59
2018-07-09T18:43:56.867Z,21.62
2018-07-09T18:46:33.792Z,21.50
2018-07-09T18:49:09.570Z,21.48
2018-07-09T18:51:44.518Z,21.42
2018-07-09T18:54:18.086Z,21.42
2018-07-09T18:56:51.137Z,21.38
2018-07-09T18:59:26.598Z,21.38
2018-07-09T19:02:02.921Z,21.33
2018-07-09T19:04:39.257Z,21.38
2018-07-09T19:07:21.670Z,21.34
2018-07-09T19:10:13.677Z,21.29
2018-07-09T19:12:49.717Z,21.24
2018-07-09T19:15:27.184Z,21.27
2018-07-09T19:18:29.353Z,21.24
2018-07-09T19:21:40.056Z,21.22
2018-07-09T19:24:12.239Z,21.13
2018-07-09T19:26:42.708Z,21.03
2018-07-09T19:29:17.429Z,20.98
2018-07-09T19:31:49.516Z,20.93
2018-07-09T19:34:22.454Z,20.95
2018-07-09T19:36:52.753Z,20.88
2018-07-09T19:39:25.572Z,20.78
2018-07-09T19:41:57.150Z,20.84
2018-07-09T19:44:27.543Z,20.71
2018-07-09T19:47:01.597Z,20.63
2018-07-09T19:49:35.346Z,20.53
2018-07-09T19:52:06.884Z,20.42
2018-07-09T19:54:38.768Z,20.38
2018-07-09T19:57:11.641Z,20.42
2018-07-09T19:59:43.368Z,20.36
2018-07-09T20:02:15.554Z,20.32
2018-07-09T20:04:48.546Z,20.23
2018-07-09T20:07:21.553Z,20.15
2018-07-09T20:09:57.814Z,20.02
2018-07-09T20:12:37.792Z,19.89
2018-07-09T20:15:19.139Z,19.83
2018-07-09T20:17:50.368Z,19.81
2018-07-09T20:20:21.581Z,19.76
2018-07-09T20:22:52.966Z,19.61
2018-07-09T20:25:25.681Z,19.60
2018-07-09T20:28:12.011Z,19.56
2018-07-09T20:30:49.545Z,19.44
2018-07-09T20:33:20.205Z,19.33
2018-07-09T20:35:55.382Z,19.26
2018-07-09T20:38:40.196Z,19.22
2018-07-09T20:41:11.562Z,19.18
2018-07-09T20:43:45.731Z,19.13
2018-07-09T20:46:17.697Z,19.06
2018-07-09T20:48:51.840Z,19.01
2018-07-09T20:51:22.690Z,18.96
2018-07-09T20:53:54.918Z,18.91
2018-07-09T20:56:27.865Z,18.85
2018-07-09T20:58:59.965Z,18.80
2018-07-09T21:01:40.399Z,18.87
2018-07-09T21:04:16.841Z,18.72
2018-07-09T21:06:49.394Z,18.61
2018-07-09T21:09:24.093Z,18.46
2018-07-09T21:12:04.938Z,18.39
2018-07-09T21:14:37.127Z,18.38
2018-07-09T21:17:11.580Z,18.30
2018-07-09T21:19:44.959Z,18.21
2018-07-09T21:22:15.722Z,18.14
2018-07-09T21:24:50.326Z,18.06
2018-07-09T21:27:20.462Z,18.03
2018-07-09T21:29:54.342Z,17.96
2018-07-09T21:32:26.190Z,17.88
2018-07-09T21:35:00.717Z,17.79
2018-07-09T21:37:33.713Z,17.76
2018-07-09T21:40:03.942Z,17.72
2018-07-09T21:42:40.201Z,17.77
2018-07-09T21:45:18.125Z,17.79
2018-07-09T21:47:59.210Z,17.76
2018-07-09T21:50:19.372Z,17.73
2018-07-09T21:52:50.546Z,17.72
2018-07-09T21:55:20.633Z,17.68
2018-07-09T21:57:51.877Z,17.63
2018-07-09T22:00:38.633Z,17.64
2018-07-09T22:03:09.862Z,17.58
2018-07-09T22:05:41.649Z,17.51
2018-07-09T22:08:14.001Z,17.49
2018-07-09T22:10:44.868Z,17.39
2018-07-09T22:13:15.666Z,17.37
2018-07-09T22:15:46.309Z,17.33
2018-07-09T22:18:17.174Z,17.30
2018-07-09T22:20:47.475Z,17.25
2018-07-09T22:23:17.952Z,17.19
2018-07-09T22:25:49.929Z,17.22
2018-07-09T22:28:22.312Z,17.21
2018-07-09T22:31:02.521Z,17.30
2018-07-09T22:33:40.586Z,17.31
2018-07-09T22:36:15.173Z,17.30
2018-07-09T22:38:48.159Z,17.22
2018-07-09T22:41:22.794Z,17.25
2018-07-09T22:44:15.379Z,17.28
2018-07-09T22:46:49.875Z,17.18
2018-07-09T22:49:29.126Z,17.10
2018-07-09T22:52:04.129Z,17.06
2018-07-09T22:54:39.847Z,17.06
2018-07-09T22:57:13.018Z,17.05
2018-07-09T22:59:47.738Z,17.01
2018-07-09T23:02:22.485Z,17.02
2018-07-09T23:04:55.941Z,17.03
2018-07-09T23:07:30.785Z,17.06
2018-07-09T23:10:58.638Z,17.10
2018-07-09T23:14:29.981Z,17.10
2018-07-09T23:17:36.163Z,17.06
2018-07-09T23:21:05.473Z,17.03
2018-07-09T23:23:40.790Z,17.04
2018-07-09T23:26:12.041Z,16.99
2018-07-09T23:28:46.946Z,16.91
2018-07-09T23:31:22.448Z,16.96
2018-07-09T23:33:55.748Z,16.91
2018-07-09T23:36:29.903Z,16.86
2018-07-09T23:39:00.544Z,16.85
2018-07-09T23:41:31.242Z,16.85
2018-07-09T23:44:03.591Z,16.73
2018-07-09T23:46:34.835Z,16.62
2018-07-09T23:49:06.813Z,16.60
2018-07-09T23:51:37.813Z,16.53
2018-07-09T23:54:08.667Z,16.42
2018-07-09T23:57:52.644Z,16.40
